Time;durP1;ratioP1;P1;durP2;ratioP2;P2;SDS_P1;SDS_P2;PMS_P1;PMS_P2;Temp;Humidity;BMP_temperature;BMP_pressure;BME280_temperature;BME280_humidity;BME280_pressure;Samples;Min_cycle;Max_cycle;Signal;HPM_P1;HPM_P2
2023/11/24 00:00:07;;;;;;;23.05;3.33;;;;;;;7.45;100.00;101682.81;5050510;28;20106;-77
2023/11/24 00:02:33;;;;;;;24.42;2.72;;;;;;;7.39;100.00;101670.84;5050748;28;20495;-77
2023/11/24 00:04:59;;;;;;;18.50;2.33;;;;;;;7.36;100.00;101677.16;5052078;28;20219;-76
2023/11/24 00:07:24;;;;;;;12.43;2.85;;;;;;;7.38;100.00;101683.19;5052314;28;20484;-77
2023/11/24 00:09:50;;;;;;;11.82;1.95;;;;;;;7.40;100.00;101676.03;5051873;28;20044;-77
2023/11/24 00:12:15;;;;;;;13.10;2.00;;;;;;;7.43;100.00;101664.38;5050776;28;20392;-76
2023/11/24 00:14:40;;;;;;;14.07;3.10;;;;;;;7.47;100.00;101670.34;5051838;28;20379;-77
2023/11/24 00:17:06;;;;;;;13.25;2.53;;;;;;;7.48;100.00;101670.25;5050373;28;20028;-76
2023/11/24 00:19:31;;;;;;;14.90;2.40;;;;;;;7.53;100.00;101680.53;5051983;28;20477;-76
2023/11/24 00:21:57;;;;;;;18.98;2.67;;;;;;;7.59;100.00;101677.47;5051499;28;20040;-76
2023/11/24 00:24:23;;;;;;;17.13;2.78;;;;;;;7.64;100.00;101679.84;5051746;28;20429;-77
2023/11/24 00:26:49;;;;;;;20.00;3.00;;;;;;;7.71;100.00;101670.53;5051678;28;20064;-77
2023/11/24 00:29:15;;;;;;;23.92;3.30;;;;;;;7.75;100.00;101664.94;5051382;28;20457;-76
2023/11/24 00:31:41;;;;;;;9.93;2.15;;;;;;;7.82;100.00;101657.41;5051728;28;20029;-78
2023/11/24 00:34:07;;;;;;;12.15;2.28;;;;;;;7.87;100.00;101663.28;5051801;28;20515;-76
2023/11/24 00:36:33;;;;;;;19.67;3.42;;;;;;;7.82;100.00;101646.81;5051547;28;20063;-77
2023/11/24 00:38:59;;;;;;;16.35;2.60;;;;;;;7.83;100.00;101645.88;5051765;28;20029;-76
2023/11/24 00:41:24;;;;;;;19.70;3.08;;;;;;;7.91;100.00;101645.38;5051399;28;20025;-77
2023/11/24 00:43:50;;;;;;;17.27;2.80;;;;;;;7.90;100.00;101649.00;5051171;28;20363;-76
2023/11/24 00:46:18;;;;;;;20.27;3.08;;;;;;;7.90;100.00;101654.28;5049933;28;20032;-76
2023/11/24 00:48:43;;;;;;;18.95;3.35;;;;;;;7.91;100.00;101664.78;5050984;28;20036;-78
2023/11/24 00:51:09;;;;;;;16.77;2.60;;;;;;;7.94;100.00;101679.63;5051297;28;20059;-77
2023/11/24 00:53:35;;;;;;;17.67;3.10;;;;;;;7.74;100.00;101680.94;5051416;28;20112;-77
2023/11/24 00:56:01;;;;;;;24.95;3.88;;;;;;;7.52;100.00;101684.13;5050406;28;20085;-77
2023/11/24 00:58:26;;;;;;;21.45;3.25;;;;;;;7.20;100.00;101698.44;5032968;28;20052;-78
2023/11/24 01:00:53;;;;;;;23.10;3.35;;;;;;;6.89;100.00;101688.91;5050994;28;20041;-79
2023/11/24 01:03:20;;;;;;;27.63;3.15;;;;;;;6.58;100.00;101666.13;5051075;28;20037;-79
2023/11/24 01:05:45;;;;;;;18.48;2.58;;;;;;;6.32;100.00;101655.34;5051009;28;20056;-78
2023/11/24 01:08:12;;;;;;;10.50;1.98;;;;;;;6.13;100.00;101655.56;5050519;28;20037;-77
2023/11/24 01:10:37;;;;;;;17.77;2.50;;;;;;;6.03;100.00;101651.75;5051239;28;20089;-78
2023/11/24 01:13:02;;;;;;;15.68;2.03;;;;;;;5.99;100.00;101648.47;5050705;28;20434;-78
2023/11/24 01:15:28;;;;;;;14.68;3.38;;;;;;;6.01;100.00;101641.28;5049332;28;20041;-77
2023/11/24 01:17:54;;;;;;;9.85;1.98;;;;;;;6.08;100.00;101649.72;5050736;28;20123;-77
2023/11/24 01:20:21;;;;;;;15.40;2.35;;;;;;;6.17;100.00;101659.75;5050636;28;20037;-78
2023/11/24 01:22:47;;;;;;;11.77;2.45;;;;;;;6.34;100.00;101682.53;5051348;28;20093;-77
2023/11/24 01:25:12;;;;;;;14.10;2.20;;;;;;;6.35;100.00;101687.72;5050925;28;20475;-78
2023/11/24 01:27:38;;;;;;;21.67;2.15;;;;;;;6.24;100.00;101676.06;5050792;28;20510;-77
2023/11/24 01:30:03;;;;;;;19.67;2.35;;;;;;;6.12;100.00;101691.72;5050433;28;20138;-79
2023/11/24 01:32:29;;;;;;;8.90;1.65;;;;;;;5.99;100.00;101686.28;5050550;28;20105;-79
2023/11/24 01:34:54;;;;;;;17.55;1.70;;;;;;;5.89;100.00;101687.72;5050484;28;20469;-81
2023/11/24 01:37:20;;;;;;;14.13;1.25;;;;;;;5.82;100.00;101689.00;5048992;28;20461;-81
2023/11/24 01:39:46;;;;;;;10.90;1.20;;;;;;;5.79;100.00;101681.25;5050371;28;20056;-79
2023/11/24 01:42:11;;;;;;;9.63;1.52;;;;;;;5.78;100.00;101676.94;5050443;28;20481;-79
2023/11/24 01:44:36;;;;;;;20.05;2.80;;;;;;;5.75;100.00;101671.84;5050907;28;20033;-78
2023/11/24 01:47:02;;;;;;;19.90;2.70;;;;;;;5.77;100.00;101662.88;5050411;28;20187;-79
2023/11/24 01:49:28;;;;;;;18.55;1.58;;;;;;;5.79;100.00;101646.94;5049439;28;20100;-79
2023/11/24 01:51:55;;;;;;;11.70;1.95;;;;;;;5.82;100.00;101642.34;5050290;28;20495;-79
2023/11/24 01:54:22;;;;;;;14.90;1.90;;;;;;;5.87;100.00;101631.50;5049736;28;20043;-78
2023/11/24 01:56:48;;;;;;;11.20;2.50;;;;;;;5.93;100.00;101633.78;5050401;28;20052;-78
2023/11/24 01:59:14;;;;;;;14.45;2.08;;;;;;;5.99;100.00;101636.09;5050538;28;20065;-77
2023/11/24 02:01:40;;;;;;;10.52;1.90;;;;;;;6.02;100.00;101640.34;5050614;28;20520;-78
2023/11/24 02:04:06;;;;;;;16.10;2.15;;;;;;;6.03;100.00;101625.34;5050287;28;20043;-78
2023/11/24 02:06:31;;;;;;;13.43;1.90;;;;;;;6.03;100.00;101630.63;5050398;28;20033;-77
2023/11/24 02:08:57;;;;;;;6.63;1.42;;;;;;;6.07;100.00;101627.72;5048988;28;20401;-78
2023/11/24 02:11:22;;;;;;;19.48;2.00;;;;;;;6.12;100.00;101625.66;5050204;28;20104;-78
2023/11/24 02:13:49;;;;;;;16.05;2.33;;;;;;;6.12;100.00;101622.16;5050165;28;20041;-79
2023/11/24 02:16:15;;;;;;;14.23;2.15;;;;;;;6.09;100.00;101625.84;5048578;28;20033;-78
2023/11/24 02:18:40;;;;;;;16.55;1.83;;;;;;;6.09;100.00;101630.25;5050292;28;20029;-78
2023/11/24 02:21:06;;;;;;;15.07;2.38;;;;;;;6.08;100.00;101616.22;5050104;28;20086;-77
2023/11/24 02:23:31;;;;;;;13.68;1.65;;;;;;;6.13;100.00;101614.13;5050349;28;20025;-77
2023/11/24 02:25:57;;;;;;;11.68;1.70;;;;;;;6.14;100.00;101615.00;5050277;28;20102;-78
2023/11/24 02:28:22;;;;;;;15.75;2.53;;;;;;;6.13;100.00;101613.28;5050244;28;20091;-77
2023/11/24 02:30:47;;;;;;;16.92;2.38;;;;;;;6.15;100.00;101614.03;5050477;28;20135;-76
2023/11/24 02:33:13;;;;;;;7.22;1.60;;;;;;;6.28;100.00;101600.97;5050508;28;20033;-81
2023/11/24 02:35:42;;;;;;;13.13;1.70;;;;;;;6.38;100.00;101606.56;5050262;28;20421;-77
2023/11/24 02:38:07;;;;;;;9.30;1.88;;;;;;;6.37;100.00;101604.84;5048924;28;20032;-77
2023/11/24 02:40:33;;;;;;;18.92;1.58;;;;;;;6.37;100.00;101592.47;5053128;28;20041;-77
2023/11/24 02:42:59;;;;;;;20.75;2.42;;;;;;;6.40;100.00;101584.34;5053950;28;20078;-78
2023/11/24 02:45:24;;;;;;;12.00;1.38;;;;;;;6.46;100.00;101576.03;5054028;28;20456;-76
2023/11/24 02:47:50;;;;;;;11.15;2.38;;;;;;;6.61;100.00;101563.66;5053697;28;20063;-78
2023/11/24 02:50:15;;;;;;;9.27;1.40;;;;;;;6.70;100.00;101564.88;5052540;28;20182;-79
2023/11/24 02:52:41;;;;;;;8.65;2.08;;;;;;;6.73;100.00;101569.97;5053819;28;20460;-78
2023/11/24 02:55:06;;;;;;;6.80;1.35;;;;;;;6.74;100.00;101563.75;5053394;28;20446;-78
2023/11/24 02:57:32;;;;;;;10.35;1.85;;;;;;;6.74;100.00;101569.03;5052214;28;20037;-79
2023/11/24 02:59:58;;;;;;;9.30;1.65;;;;;;;6.75;100.00;101554.00;5051824;28;20110;-75
2023/11/24 03:02:23;;;;;;;15.00;1.65;;;;;;;6.79;100.00;101552.88;5053260;28;20080;-75
2023/11/24 03:04:48;;;;;;;9.52;1.33;;;;;;;6.77;100.00;101563.56;5053358;28;20037;-78
2023/11/24 03:07:14;;;;;;;13.15;1.95;;;;;;;6.76;100.00;101553.91;5053250;28;20037;-78
2023/11/24 03:09:40;;;;;;;8.70;1.67;;;;;;;6.71;100.00;101554.22;5053210;28;20056;-76
2023/11/24 03:12:07;;;;;;;11.82;2.38;;;;;;;6.69;100.00;101550.81;5051249;28;20025;-78
2023/11/24 03:14:33;;;;;;;15.07;1.80;;;;;;;6.74;100.00;101554.97;5053138;28;20021;-77
2023/11/24 03:16:58;;;;;;;11.13;1.60;;;;;;;6.78;100.00;101548.56;5052407;28;20032;-77
2023/11/24 03:19:24;;;;;;;13.45;2.30;;;;;;;6.82;100.00;101536.81;5052796;28;20124;-77
2023/11/24 03:21:49;;;;;;;9.85;1.70;;;;;;;6.84;100.00;101534.94;5052781;28;20469;-77
2023/11/24 03:24:15;;;;;;;5.82;1.85;;;;;;;6.79;100.00;101532.59;5052391;28;20032;-76
2023/11/24 03:26:41;;;;;;;15.65;1.83;;;;;;;6.83;100.00;101522.66;5053057;28;20044;-76
2023/11/24 03:29:06;;;;;;;11.38;2.28;;;;;;;6.93;100.00;101520.28;5052314;28;20029;-76
2023/11/24 03:31:32;;;;;;;10.50;1.65;;;;;;;7.01;100.00;101517.97;5052487;28;20040;-76
2023/11/24 03:33:59;;;;;;;14.43;2.30;;;;;;;7.11;100.00;101518.22;5052828;28;20025;-76
2023/11/24 03:36:24;;;;;;;12.68;2.20;;;;;;;7.14;100.00;101512.75;5052228;28;20071;-77
2023/11/24 03:38:50;;;;;;;15.02;2.05;;;;;;;7.12;100.00;101525.19;5050973;28;20033;-77
2023/11/24 03:41:15;;;;;;;11.32;2.08;;;;;;;7.12;100.00;101526.06;5052187;28;20040;-77
2023/11/24 03:43:40;;;;;;;10.68;1.95;;;;;;;7.06;100.00;101510.56;5052484;28;20128;-77
2023/11/24 03:46:06;;;;;;;14.20;1.83;;;;;;;7.00;100.00;101521.56;5051005;28;20052;-77
2023/11/24 03:48:31;;;;;;;11.85;1.77;;;;;;;6.94;100.00;101514.88;5052300;28;20091;-77
2023/11/24 03:50:58;;;;;;;10.90;1.65;;;;;;;6.97;100.00;101516.47;5052182;28;20447;-77
2023/11/24 03:53:23;;;;;;;12.45;1.77;;;;;;;7.04;100.00;101507.19;5050563;28;20041;-77
2023/11/24 03:55:49;;;;;;;16.25;1.80;;;;;;;7.11;100.00;101495.25;5052058;28;20029;-77
2023/11/24 03:58:14;;;;;;;16.52;2.22;;;;;;;7.16;100.00;101502.88;5051908;28;20457;-77
2023/11/24 04:00:40;;;;;;;10.73;2.10;;;;;;;7.21;100.00;101511.38;5052438;28;20029;-78
2023/11/24 04:03:05;;;;;;;13.93;1.63;;;;;;;7.28;100.00;101491.47;5052171;28;20123;-78
2023/11/24 04:05:32;;;;;;;11.30;2.35;;;;;;;7.29;100.00;101490.53;5051475;28;20049;-77
2023/11/24 04:07:57;;;;;;;16.48;1.90;;;;;;;7.29;100.00;101492.34;5052175;28;20146;-77
2023/11/24 04:10:23;;;;;;;7.90;1.58;;;;;;;7.30;100.00;101494.91;5050380;28;20044;-77
2023/11/24 04:12:48;;;;;;;13.02;2.00;;;;;;;7.31;100.00;101504.50;5051884;28;20040;-77
2023/11/24 04:15:13;;;;;;;16.02;2.97;;;;;;;7.15;100.00;101506.47;5052046;28;20330;-77
2023/11/24 04:17:39;;;;;;;13.18;1.98;;;;;;;6.89;100.00;101511.66;5051708;28;20136;-77
2023/11/24 04:20:08;;;;;;;17.20;3.00;;;;;;;6.69;100.00;101505.84;5051564;28;20067;-77
2023/11/24 04:22:34;;;;;;;14.38;2.05;;;;;;;6.52;100.00;101492.84;5051757;28;20037;-77
2023/11/24 04:24:59;;;;;;;11.20;2.13;;;;;;;6.41;100.00;101488.25;5049908;28;20106;-78
2023/11/24 04:27:25;;;;;;;10.40;2.30;;;;;;;6.29;100.00;101492.50;5051425;28;20350;-79
2023/11/24 04:29:50;;;;;;;14.00;2.67;;;;;;;6.22;100.00;101485.06;5051484;28;20044;-78
2023/11/24 04:32:16;;;;;;;13.02;2.22;;;;;;;6.23;100.00;101484.97;5051401;28;20421;-78
2023/11/24 04:34:41;;;;;;;13.65;2.60;;;;;;;6.28;100.00;101480.22;5051966;28;20380;-77
2023/11/24 04:37:07;;;;;;;12.57;2.60;;;;;;;6.39;100.00;101479.56;5051671;28;20033;-78
2023/11/24 04:39:33;;;;;;;8.73;1.23;;;;;;;6.47;100.00;101479.09;5051630;28;20128;-77
2023/11/24 04:41:58;;;;;;;12.15;2.30;;;;;;;6.57;100.00;101480.19;5051513;28;20112;-76
2023/11/24 04:44:24;;;;;;;17.45;2.08;;;;;;;6.65;100.00;101483.19;5051337;28;20037;-78
2023/11/24 04:46:49;;;;;;;10.45;1.52;;;;;;;6.69;100.00;101476.78;5049928;28;20037;-77
2023/11/24 04:49:14;;;;;;;11.23;1.70;;;;;;;6.74;100.00;101479.13;5051249;28;20055;-76
2023/11/24 04:51:40;;;;;;;11.48;1.83;;;;;;;6.77;100.00;101480.72;5051213;28;20064;-77
2023/11/24 04:54:05;;;;;;;10.88;2.03;;;;;;;6.80;100.00;101476.06;5050108;28;20040;-77
2023/11/24 04:56:31;;;;;;;8.77;1.63;;;;;;;6.84;100.00;101469.66;5051356;28;20095;-77
2023/11/24 04:58:57;;;;;;;10.13;1.67;;;;;;;6.87;100.00;101472.09;5051115;28;20091;-77
2023/11/24 05:01:22;;;;;;;10.88;1.50;;;;;;;6.89;100.00;101475.47;5051027;28;20055;-77
2023/11/24 05:03:52;;;;;;;16.40;2.42;;;;;;;6.89;100.00;101503.72;5050713;28;20025;-77
2023/11/24 05:06:18;;;;;;;11.40;2.88;;;;;;;6.62;100.00;101501.91;5049320;28;20160;-78
2023/11/24 05:08:44;;;;;;;16.23;2.72;;;;;;;6.33;100.00;101478.16;5051075;28;20493;-78
2023/11/24 05:11:09;;;;;;;12.63;2.45;;;;;;;6.12;100.00;101477.69;5050727;28;20150;-78
2023/11/24 05:13:34;;;;;;;9.98;1.95;;;;;;;5.99;100.00;101458.25;5050614;28;20033;-78
2023/11/24 05:16:00;;;;;;;6.07;1.20;;;;;;;5.94;100.00;101460.28;5050866;28;20318;-77
2023/11/24 05:18:25;;;;;;;8.20;1.75;;;;;;;5.96;100.00;101458.41;5050242;28;20033;-77
2023/11/24 05:20:51;;;;;;;10.50;1.85;;;;;;;6.04;100.00;101461.44;5051041;28;20028;-77
2023/11/24 05:23:17;;;;;;;10.30;1.60;;;;;;;6.18;100.00;101464.09;5050711;28;20114;-77
2023/11/24 05:25:42;;;;;;;19.10;2.30;;;;;;;6.28;100.00;101452.94;5049027;28;20064;-77
2023/11/24 05:28:08;;;;;;;9.52;1.75;;;;;;;6.37;100.00;101440.97;5050748;28;20037;-79
2023/11/24 05:30:37;;;;;;;16.77;1.77;;;;;;;6.54;100.00;101448.66;5050923;28;20037;-77
2023/11/24 05:33:03;;;;;;;12.70;2.95;;;;;;;6.61;100.00;101451.75;5050317;28;20033;-77
2023/11/24 05:35:28;;;;;;;6.57;1.58;;;;;;;6.58;100.00;101434.28;5050979;28;20045;-77
2023/11/24 05:37:54;;;;;;;8.00;1.70;;;;;;;6.61;100.00;101438.53;5050239;28;20059;-77
2023/11/24 05:40:19;;;;;;;14.38;1.90;;;;;;;6.61;100.00;101464.97;5050442;28;20381;-77
2023/11/24 05:42:45;;;;;;;9.93;1.67;;;;;;;6.59;100.00;101457.16;5050331;28;20029;-77
2023/11/24 05:45:12;;;;;;;10.52;1.58;;;;;;;6.55;100.00;101449.50;5050382;28;20078;-77
2023/11/24 05:47:38;;;;;;;9.73;1.60;;;;;;;6.45;100.00;101449.22;5049417;28;20124;-77
2023/11/24 05:50:07;;;;;;;11.50;1.75;;;;;;;6.42;100.00;101452.06;5050212;28;20166;-78
2023/11/24 05:52:35;;;;;;;10.27;1.75;;;;;;;6.40;100.00;101441.59;5050361;28;20107;-77
2023/11/24 05:55:01;;;;;;;10.25;1.42;;;;;;;6.40;100.00;101443.41;5050200;28;20080;-77
2023/11/24 05:57:27;;;;;;;8.77;1.25;;;;;;;6.41;100.00;101440.66;5050209;28;20110;-77
2023/11/24 05:59:52;;;;;;;10.07;1.80;;;;;;;6.43;100.00;101437.91;5050782;28;20312;-77
2023/11/24 06:02:18;;;;;;;7.93;2.03;;;;;;;6.44;100.00;101442.28;5048660;28;20049;-76
2023/11/24 06:04:43;;;;;;;17.77;2.65;;;;;;;6.52;100.00;101439.97;5049932;28;20029;-76
2023/11/24 06:07:09;;;;;;;12.02;2.75;;;;;;;6.66;100.00;101436.47;5050228;28;20429;-75
2023/11/24 06:09:34;;;;;;;15.90;2.35;;;;;;;6.73;100.00;101440.38;5049995;28;20029;-77
2023/11/24 06:12:01;;;;;;;20.15;2.65;;;;;;;6.79;100.00;101437.38;5048789;28;20025;-76
2023/11/24 06:14:26;;;;;;;18.02;2.45;;;;;;;6.82;100.00;101438.94;5051174;28;20530;-77
2023/11/24 06:16:52;;;;;;;15.65;1.98;;;;;;;6.79;100.00;101432.06;5052509;28;20140;-77
2023/11/24 06:19:17;;;;;;;12.57;2.03;;;;;;;6.75;100.00;101435.00;5054034;28;20461;-77
2023/11/24 06:21:42;;;;;;;13.05;2.00;;;;;;;6.74;100.00;101428.03;5053925;28;20106;-78
2023/11/24 06:24:08;;;;;;;17.27;2.08;;;;;;;6.75;100.00;101416.47;5053684;28;20207;-78
2023/11/24 06:26:34;;;;;;;15.07;2.38;;;;;;;6.76;100.00;101419.03;5052821;28;20060;-77
2023/11/24 06:28:59;;;;;;;15.52;2.35;;;;;;;6.77;100.00;101426.00;5054259;28;20158;-77
2023/11/24 06:31:25;;;;;;;16.67;3.40;;;;;;;6.74;100.00;101428.03;5053599;28;20113;-78
2023/11/24 06:33:51;;;;;;;6.68;1.75;;;;;;;6.70;100.00;101420.28;5053785;28;20037;-78
2023/11/24 06:36:16;;;;;;;15.40;2.40;;;;;;;6.73;100.00;101429.81;5053869;28;20033;-77
2023/11/24 06:38:42;;;;;;;20.65;2.30;;;;;;;6.73;100.00;101435.09;5053517;28;20122;-77
2023/11/24 06:41:10;;;;;;;16.27;2.25;;;;;;;6.78;100.00;101456.81;5053852;28;20085;-79
2023/11/24 06:43:36;;;;;;;13.68;1.70;;;;;;;6.69;100.00;101473.28;5053282;28;20025;-77
2023/11/24 06:46:02;;;;;;;9.27;1.77;;;;;;;6.12;100.00;101460.97;5053739;28;20051;-77
2023/11/24 06:48:27;;;;;;;7.68;1.48;;;;;;;5.66;100.00;101464.63;5052492;28;20060;-79
2023/11/24 06:50:53;;;;;;;7.90;1.65;;;;;;;5.33;100.00;101463.03;5053165;28;20516;-78
2023/11/24 06:53:18;;;;;;;15.38;1.63;;;;;;;5.12;100.00;101465.13;5052277;28;20485;-78
2023/11/24 06:55:43;;;;;;;9.93;1.73;;;;;;;5.01;100.00;101476.28;5053285;28;20099;-79
2023/11/24 06:58:09;;;;;;;15.07;2.17;;;;;;;4.98;100.00;101475.63;5053139;28;20049;-77
2023/11/24 07:00:36;;;;;;;10.65;1.55;;;;;;;4.91;100.00;101475.97;5053406;28;20442;-79
2023/11/24 07:03:01;;;;;;;10.20;1.50;;;;;;;4.84;100.00;101474.59;5054064;28;20041;-78
2023/11/24 07:05:26;;;;;;;12.85;1.42;;;;;;;4.77;100.00;101463.53;5053349;28;20033;-77
2023/11/24 07:07:52;;;;;;;8.38;1.23;;;;;;;4.69;100.00;101467.56;5052656;28;20480;-79
2023/11/24 07:10:17;;;;;;;5.93;1.10;;;;;;;4.62;100.00;101456.50;5051964;28;20083;-79
2023/11/24 07:12:43;;;;;;;14.80;1.90;;;;;;;4.62;100.00;101467.03;5053125;28;20025;-78
2023/11/24 07:15:10;;;;;;;11.95;1.50;;;;;;;4.59;100.00;101452.25;5053359;28;20076;-78
2023/11/24 07:17:36;;;;;;;7.47;1.30;;;;;;;4.59;100.00;101448.75;5051862;28;20028;-77
2023/11/24 07:20:03;;;;;;;15.15;2.45;;;;;;;4.60;100.00;101442.56;5053094;28;20037;-77
2023/11/24 07:22:30;;;;;;;13.32;2.83;;;;;;;4.65;100.00;101444.94;5052014;28;20029;-77
2023/11/24 07:24:56;;;;;;;18.20;2.13;;;;;;;4.71;100.00;101434.88;5052459;28;20433;-78
2023/11/24 07:27:21;;;;;;;17.77;2.03;;;;;;;4.84;100.00;101431.56;5051384;28;20367;-77
2023/11/24 07:29:46;;;;;;;15.43;2.25;;;;;;;5.02;100.00;101448.13;5051422;28;20044;-79
2023/11/24 07:32:14;;;;;;;13.90;1.98;;;;;;;5.18;100.00;101475.31;5051634;28;20096;-77
2023/11/24 07:34:40;;;;;;;15.50;2.22;;;;;;;5.13;100.00;101464.19;5051769;28;20028;-79
2023/11/24 07:37:06;;;;;;;12.90;2.28;;;;;;;5.04;100.00;101470.81;5053189;28;20475;-78
2023/11/24 07:39:32;;;;;;;13.32;2.38;;;;;;;4.96;100.00;101478.34;5052841;28;20122;-79
2023/11/24 07:41:58;;;;;;;18.85;2.00;;;;;;;4.90;100.00;101473.41;5052999;28;20036;-78
2023/11/24 07:44:25;;;;;;;18.45;2.90;;;;;;;4.75;100.00;101465.44;5052664;28;20445;-79
2023/11/24 07:46:52;;;;;;;21.73;2.35;;;;;;;4.62;100.00;101459.13;5052619;28;20063;-78
2023/11/24 07:49:18;;;;;;;10.65;1.40;;;;;;;4.55;100.00;101463.91;5052788;28;20321;-78
2023/11/24 07:51:44;;;;;;;12.85;1.65;;;;;;;4.55;100.00;101463.03;5052828;28;20476;-78
2023/11/24 07:54:09;;;;;;;12.98;2.08;;;;;;;4.58;100.00;101453.19;5053251;28;20079;-77
2023/11/24 07:56:35;;;;;;;8.73;1.88;;;;;;;4.64;100.00;101449.34;5052614;28;20025;-78
2023/11/24 07:59:00;;;;;;;18.75;2.13;;;;;;;4.74;100.00;101455.81;5050726;28;20099;-77
2023/11/24 08:01:26;;;;;;;10.25;1.63;;;;;;;4.66;100.00;101478.25;5052768;28;20075;-81
2023/11/24 08:03:52;;;;;;;10.43;2.05;;;;;;;4.41;100.00;101445.38;5052808;28;20033;-82
2023/11/24 08:06:18;;;;;;;13.40;1.45;;;;;;;4.23;100.00;101448.06;5052478;28;20319;-81
2023/11/24 08:08:43;;;;;;;12.98;2.10;;;;;;;4.14;100.00;101453.00;5052118;28;20032;-81
2023/11/24 08:11:09;;;;;;;5.95;1.58;;;;;;;4.10;100.00;101476.00;5052109;28;20337;-79
2023/11/24 08:13:34;;;;;;;10.65;1.55;;;;;;;4.03;100.00;101464.06;5051797;28;20050;-78
2023/11/24 08:16:00;;;;;;;9.52;1.92;;;;;;;3.86;100.00;101478.97;5051669;28;20056;-80
2023/11/24 08:18:26;;;;;;;6.43;1.27;;;;;;;3.78;100.00;101482.97;5050719;28;20167;-79
2023/11/24 08:20:52;;;;;;;5.53;1.17;;;;;;;3.75;100.00;101472.56;5051845;28;20452;-81
2023/11/24 08:23:18;;;;;;;12.15;1.42;;;;;;;3.71;100.00;101443.78;5051925;28;20036;-82
2023/11/24 08:25:44;;;;;;;10.38;1.60;;;;;;;3.71;100.00;101435.03;5051518;28;20029;-82
2023/11/24 08:28:11;;;;;;;11.27;1.90;;;;;;;3.70;100.00;101444.72;5051574;28;20032;-80
2023/11/24 08:30:38;;;;;;;13.38;1.70;;;;;;;3.70;100.00;101436.81;5052230;28;20111;-80
2023/11/24 08:33:03;;;;;;;19.02;1.95;;;;;;;3.82;100.00;101439.72;5051512;28;20520;-82
2023/11/24 08:35:29;;;;;;;18.38;1.65;;;;;;;3.97;100.00;101438.94;5050267;28;20031;-81
2023/11/24 08:37:54;;;;;;;18.17;2.25;;;;;;;4.16;100.00;101430.88;5049251;28;20162;-82
2023/11/24 08:40:21;;;;;;;19.92;2.78;;;;;;;4.41;100.00;101427.75;5051059;28;20025;-82
2023/11/24 08:42:47;;;;;;;13.88;2.33;;;;;;;4.52;100.00;101413.13;5051330;28;20178;-78
2023/11/24 08:45:13;;;;;;;15.13;1.92;;;;;;;4.59;100.00;101422.41;5051012;28;20028;-80
2023/11/24 08:47:41;;;;;;;18.10;2.22;;;;;;;4.65;100.00;101423.84;5049982;28;20455;-79
2023/11/24 08:50:08;;;;;;;5.90;1.23;;;;;;;4.73;100.00;101422.50;5050908;28;20090;-80
2023/11/24 08:52:34;;;;;;;15.65;1.70;;;;;;;4.88;100.00;101422.53;5051341;28;20040;-83
2023/11/24 08:54:59;;;;;;;10.00;1.52;;;;;;;4.98;100.00;101412.31;5049580;28;20123;-80
2023/11/24 08:57:27;;;;;;;15.20;1.70;;;;;;;5.07;100.00;101404.69;5049827;28;20039;-82
2023/11/24 08:59:53;;;;;;;15.45;1.73;;;;;;;5.14;100.00;101404.38;5050433;28;20053;-84
2023/11/24 09:02:19;;;;;;;17.90;2.63;;;;;;;5.20;100.00;101402.22;5049631;28;20033;-83
2023/11/24 09:04:44;;;;;;;18.00;2.13;;;;;;;5.25;100.00;101409.84;5049812;28;20036;-79
2023/11/24 09:07:12;;;;;;;29.17;3.28;;;;;;;5.31;100.00;101396.28;5050854;28;20144;-86
2023/11/24 09:09:38;;;;;;;12.35;2.45;;;;;;;5.33;100.00;101390.91;5050954;28;20556;-80
2023/11/24 09:12:05;;;;;;;17.60;2.38;;;;;;;5.38;100.00;101396.78;5049263;28;20175;-83
2023/11/24 09:14:32;;;;;;;16.33;2.42;;;;;;;5.42;100.00;101382.44;5032952;28;20029;-83
2023/11/24 09:16:57;;;;;;;16.35;2.13;;;;;;;5.46;100.00;101394.53;5051110;28;20044;-85
2023/11/24 09:19:23;;;;;;;10.38;1.95;;;;;;;5.39;100.00;101403.75;5049133;28;20353;-85
2023/11/24 09:21:48;;;;;;;13.32;2.20;;;;;;;5.27;100.00;101390.34;5049367;28;20409;-80
2023/11/24 09:24:15;;;;;;;11.65;1.67;;;;;;;5.19;100.00;101400.50;5048999;28;20120;-80
2023/11/24 09:26:46;;;;;;;20.35;1.98;;;;;;;5.19;100.00;101405.78;5048856;28;20083;-84
2023/11/24 09:29:14;;;;;;;;;;;;;;;5.21;100.00;101400.41;5049489;28;20025;-83
2023/11/24 09:31:39;;;;;;;24.73;2.70;;;;;;;5.23;100.00;101390.63;5050288;28;20316;-84
2023/11/24 09:34:05;;;;;;;12.98;3.03;;;;;;;5.30;100.00;101384.06;5048818;28;20044;-83
2023/11/24 09:43:15;;;;;;;17.60;2.80;;;;;;;6.04;100.00;101392.75;4997047;28;20114;-84
2023/11/24 09:45:43;;;;;;;15.13;3.05;;;;;;;6.07;100.00;101394.38;5050923;28;20057;-85
2023/11/24 09:48:11;;;;;;;13.90;2.20;;;;;;;6.16;100.00;101402.56;5050068;28;20100;-80
2023/11/24 09:50:39;;;;;;;10.90;2.20;;;;;;;6.23;100.00;101373.13;5049978;28;20040;-79
2023/11/24 09:53:07;;;;;;;14.63;2.17;;;;;;;6.28;100.00;101385.06;5050394;28;20116;-81
2023/11/24 09:55:32;;;;;;;15.32;2.28;;;;;;;6.40;100.00;101387.91;5050501;28;20021;-81
2023/11/24 09:57:58;;;;;;;12.25;2.33;;;;;;;6.49;100.00;101382.88;5050026;28;20040;-81
2023/11/24 10:00:25;;;;;;;16.63;2.40;;;;;;;6.55;100.00;101378.13;5050758;28;20060;-83
2023/11/24 10:02:53;;;;;;;20.35;2.45;;;;;;;6.53;100.00;101391.44;5048854;28;20365;-79
2023/11/24 10:05:20;;;;;;;24.42;3.00;;;;;;;6.09;100.00;101390.69;5048765;28;20046;-84
2023/11/24 10:07:47;;;;;;;11.05;2.15;;;;;;;5.76;100.00;101388.31;5050633;28;20037;-78
2023/11/24 10:10:25;;;;;;;12.20;2.17;;;;;;;5.78;100.00;101408.41;5049910;28;20017;-81
2023/11/24 10:12:59;;;;;;;21.15;2.30;;;;;;;5.92;100.00;101399.63;5050234;28;20032;-83
2023/11/24 10:15:25;;;;;;;10.32;2.05;;;;;;;5.79;100.00;101407.47;5050512;28;20025;-80
2023/11/24 10:17:50;;;;;;;10.30;2.08;;;;;;;5.62;100.00;101383.88;5048679;28;20028;-77
2023/11/24 10:20:18;;;;;;;7.68;1.60;;;;;;;5.46;100.00;101390.09;5049939;28;20056;-79
2023/11/24 10:22:49;;;;;;;11.73;2.10;;;;;;;5.45;100.00;101395.47;5048597;28;20072;-79
2023/11/24 10:25:18;;;;;;;6.87;1.50;;;;;;;5.47;100.00;101375.94;5048599;28;20021;-79
2023/11/24 10:27:44;;;;;;;17.80;2.67;;;;;;;5.70;100.00;101370.22;5031621;28;20283;-80
2023/11/24 10:30:12;;;;;;;24.63;2.13;;;;;;;5.81;100.00;101391.53;5049500;28;20079;-79
2023/11/24 10:32:39;;;;;;;13.60;2.15;;;;;;;5.66;100.00;101382.75;5049944;28;20457;-78
2023/11/24 10:35:06;;;;;;;12.60;1.85;;;;;;;5.55;100.00;101382.56;5049719;28;20438;-78
2023/11/24 10:37:33;;;;;;;11.98;2.22;;;;;;;5.32;100.00;101371.59;5049964;28;20040;-78
2023/11/24 10:40:00;;;;;;;19.27;2.08;;;;;;;5.39;100.00;101369.44;5049803;28;20362;-77
2023/11/24 10:42:32;;;;;;;14.13;2.05;;;;;;;5.48;100.00;101348.63;5048616;28;20052;-79
2023/11/24 10:45:04;;;;;;;12.52;2.28;;;;;;;5.63;100.00;101353.91;5049855;28;20166;-81
2023/11/24 10:47:36;;;;;;;20.13;2.25;;;;;;;5.77;100.00;101353.88;5049859;28;20049;-77
2023/11/24 10:50:13;;;;;;;16.10;2.00;;;;;;;5.83;100.00;101350.88;5049876;28;20021;-77
2023/11/24 10:52:52;;;;;;;15.55;3.15;;;;;;;5.81;100.00;101357.22;5049972;28;20099;-78
2023/11/24 10:55:18;;;;;;;14.10;2.25;;;;;;;5.79;100.00;101354.66;5049919;28;20150;-79
2023/11/24 10:57:46;;;;;;;13.93;2.50;;;;;;;5.86;100.00;101341.06;5049396;28;20497;-77
2023/11/24 11:00:14;;;;;;;18.17;2.42;;;;;;;5.92;100.00;101341.53;5050733;28;20422;-78
2023/11/24 11:02:41;;;;;;;12.68;2.38;;;;;;;5.94;100.00;101337.00;5053478;28;20061;-78
2023/11/24 11:05:33;;;;;;;8.85;1.63;;;;;;;5.95;100.00;101332.56;5053078;28;20075;-80
2023/11/24 11:07:58;;;;;;;;;;;;;;;5.92;100.00;101338.88;5052563;28;20344;-80
2023/11/24 11:10:30;;;;;;;14.73;2.27;;;;;;;5.89;100.00;101325.03;5053174;28;20067;-81
2023/11/24 11:12:59;;;;;;;13.77;2.20;;;;;;;6.06;100.00;101322.22;5053282;28;20339;-79
2023/11/24 11:15:28;;;;;;;20.65;2.72;;;;;;;6.25;100.00;101319.22;5053060;28;20026;-78
2023/11/24 11:18:15;;;;;;;19.33;2.85;;;;;;;6.70;100.00;101311.88;5052997;28;20021;-79
2023/11/24 11:20:44;;;;;;;19.88;2.58;;;;;;;6.96;100.00;101311.91;5053247;28;20139;-76